sensor_id;sensor_type;location;lat;lon;timestamp;temperature;humidity
8914;DHT22;4492;48.736;9.092;2023-05-21T00:00:59;14.10;99.90
8914;DHT22;4492;48.736;9.092;2023-05-21T00:03:25;14.10;99.90
8914;DHT22;4492;48.736;9.092;2023-05-21T00:05:52;14.10;99.90
8914;DHT22;4492;48.736;9.092;2023-05-21T00:08:19;14.10;99.90
8914;DHT22;4492;48.736;9.092;2023-05-21T00:10:44;14.10;99.90
8914;DHT22;4492;48.736;9.092;2023-05-21T00:13:10;14.10;99.90
8914;DHT22;4492;48.736;9.092;2023-05-21T00:15:36;14.10;99.90
8914;DHT22;4492;48.736;9.092;2023-05-21T00:18:01;14.00;99.90
8914;DHT22;4492;48.736;9.092;2023-05-21T00:20:27;14.00;99.90
8914;DHT22;4492;48.736;9.092;2023-05-21T00:22:56;14.00;99.90
8914;DHT22;4492;48.736;9.092;2023-05-21T00:25:22;14.00;99.90
8914;DHT22;4492;48.736;9.092;2023-05-21T00:27:48;14.00;99.90
8914;DHT22;4492;48.736;9.092;2023-05-21T00:30:13;13.90;99.90
8914;DHT22;4492;48.736;9.092;2023-05-21T00:32:40;13.90;99.90
8914;DHT22;4492;48.736;9.092;2023-05-21T00:35:06;13.90;99.90
8914;DHT22;4492;48.736;9.092;2023-05-21T00:37:32;13.90;99.90
8914;DHT22;4492;48.736;9.092;2023-05-21T00:39:59;13.90;99.90
8914;DHT22;4492;48.736;9.092;2023-05-21T00:42:25;13.90;99.90
8914;DHT22;4492;48.736;9.092;2023-05-21T00:44:55;13.90;99.90
8914;DHT22;4492;48.736;9.092;2023-05-21T00:47:21;13.80;99.90
8914;DHT22;4492;48.736;9.092;2023-05-21T00:49:48;13.90;99.90
8914;DHT22;4492;48.736;9.092;2023-05-21T00:52:15;13.80;99.90
8914;DHT22;4492;48.736;9.092;2023-05-21T00:54:45;13.80;99.90
8914;DHT22;4492;48.736;9.092;2023-05-21T00:57:11;13.80;99.90
8914;DHT22;4492;48.736;9.092;2023-05-21T00:59:36;13.80;99.90
8914;DHT22;4492;48.736;9.092;2023-05-21T01:02:02;13.80;99.90
8914;DHT22;4492;48.736;9.092;2023-05-21T01:04:30;13.80;99.90
8914;DHT22;4492;48.736;9.092;2023-05-21T01:06:56;13.80;99.90
8914;DHT22;4492;48.736;9.092;2023-05-21T01:09:24;13.80;99.90
8914;DHT22;4492;48.736;9.092;2023-05-21T01:11:50;13.70;99.90
8914;DHT22;4492;48.736;9.092;2023-05-21T01:14:17;13.70;99.90
8914;DHT22;4492;48.736;9.092;2023-05-21T01:16:45;13.80;99.90
8914;DHT22;4492;48.736;9.092;2023-05-21T01:19:18;13.70;99.90
8914;DHT22;4492;48.736;9.092;2023-05-21T01:21:46;13.70;99.90
8914;DHT22;4492;48.736;9.092;2023-05-21T01:24:14;13.70;99.90
8914;DHT22;4492;48.736;9.092;2023-05-21T01:26:40;13.60;99.90
8914;DHT22;4492;48.736;9.092;2023-05-21T01:29:07;13.60;99.90
8914;DHT22;4492;48.736;9.092;2023-05-21T01:34:49;13.60;99.90
8914;DHT22;4492;48.736;9.092;2023-05-21T01:37:21;13.50;99.90
8914;DHT22;4492;48.736;9.092;2023-05-21T01:39:54;13.40;99.90
8914;DHT22;4492;48.736;9.092;2023-05-21T01:42:22;13.30;99.90
8914;DHT22;4492;48.736;9.092;2023-05-21T01:44:51;13.30;99.90
8914;DHT22;4492;48.736;9.092;2023-05-21T01:47:23;13.40;99.90
8914;DHT22;4492;48.736;9.092;2023-05-21T01:49:50;13.30;99.90
8914;DHT22;4492;48.736;9.092;2023-05-21T01:52:15;13.40;99.90
8914;DHT22;4492;48.736;9.092;2023-05-21T01:54:41;13.30;99.90
8914;DHT22;4492;48.736;9.092;2023-05-21T01:57:07;13.30;99.90
8914;DHT22;4492;48.736;9.092;2023-05-21T01:59:32;13.30;99.90
8914;DHT22;4492;48.736;9.092;2023-05-21T02:01:58;13.30;99.90
8914;DHT22;4492;48.736;9.092;2023-05-21T02:04:24;13.20;99.90
8914;DHT22;4492;48.736;9.092;2023-05-21T02:06:49;13.10;99.90
8914;DHT22;4492;48.736;9.092;2023-05-21T02:09:15;13.10;99.90
8914;DHT22;4492;48.736;9.092;2023-05-21T02:11:40;13.10;99.90
8914;DHT22;4492;48.736;9.092;2023-05-21T02:14:06;13.10;99.90
8914;DHT22;4492;48.736;9.092;2023-05-21T02:16:34;13.10;99.90
8914;DHT22;4492;48.736;9.092;2023-05-21T02:19:00;13.10;99.90
8914;DHT22;4492;48.736;9.092;2023-05-21T02:21:25;13.00;99.90
8914;DHT22;4492;48.736;9.092;2023-05-21T02:23:51;13.00;99.90
8914;DHT22;4492;48.736;9.092;2023-05-21T02:26:17;13.00;99.90
8914;DHT22;4492;48.736;9.092;2023-05-21T02:28:42;13.00;99.90
8914;DHT22;4492;48.736;9.092;2023-05-21T02:31:08;13.00;99.90
8914;DHT22;4492;48.736;9.092;2023-05-21T02:33:34;13.00;99.90
8914;DHT22;4492;48.736;9.092;2023-05-21T02:35:59;13.00;99.90
8914;DHT22;4492;48.736;9.092;2023-05-21T02:38:25;13.00;99.90
8914;DHT22;4492;48.736;9.092;2023-05-21T02:40:50;12.90;99.90
8914;DHT22;4492;48.736;9.092;2023-05-21T02:43:16;13.00;99.90
8914;DHT22;4492;48.736;9.092;2023-05-21T02:45:42;12.90;99.90
8914;DHT22;4492;48.736;9.092;2023-05-21T02:48:07;12.90;99.90
8914;DHT22;4492;48.736;9.092;2023-05-21T02:50:33;12.90;99.90
8914;DHT22;4492;48.736;9.092;2023-05-21T02:52:58;12.90;99.90
8914;DHT22;4492;48.736;9.092;2023-05-21T02:55:24;12.90;99.90
8914;DHT22;4492;48.736;9.092;2023-05-21T02:57:50;12.80;99.90
8914;DHT22;4492;48.736;9.092;2023-05-21T03:00:16;12.80;99.90
8914;DHT22;4492;48.736;9.092;2023-05-21T03:02:42;12.80;99.90
8914;DHT22;4492;48.736;9.092;2023-05-21T03:05:07;12.70;99.90
8914;DHT22;4492;48.736;9.092;2023-05-21T03:07:33;12.70;99.90
8914;DHT22;4492;48.736;9.092;2023-05-21T03:09:59;12.70;99.90
8914;DHT22;4492;48.736;9.092;2023-05-21T03:12:24;12.70;99.90
8914;DHT22;4492;48.736;9.092;2023-05-21T03:14:50;12.70;99.90
8914;DHT22;4492;48.736;9.092;2023-05-21T03:17:16;12.70;99.90
8914;DHT22;4492;48.736;9.092;2023-05-21T03:19:43;12.70;99.90
8914;DHT22;4492;48.736;9.092;2023-05-21T03:22:09;12.70;99.90
8914;DHT22;4492;48.736;9.092;2023-05-21T03:24:38;12.70;99.90
8914;DHT22;4492;48.736;9.092;2023-05-21T03:27:04;12.60;99.90
8914;DHT22;4492;48.736;9.092;2023-05-21T03:29:33;12.50;99.90
8914;DHT22;4492;48.736;9.092;2023-05-21T03:31:59;12.60;99.90
8914;DHT22;4492;48.736;9.092;2023-05-21T03:34:25;12.60;99.90
8914;DHT22;4492;48.736;9.092;2023-05-21T03:36:50;12.40;99.90
8914;DHT22;4492;48.736;9.092;2023-05-21T03:39:16;12.50;99.90
8914;DHT22;4492;48.736;9.092;2023-05-21T03:41:41;12.50;99.90
8914;DHT22;4492;48.736;9.092;2023-05-21T03:44:07;12.50;99.90
8914;DHT22;4492;48.736;9.092;2023-05-21T03:46:33;12.50;99.90
8914;DHT22;4492;48.736;9.092;2023-05-21T03:48:58;12.50;99.90
8914;DHT22;4492;48.736;9.092;2023-05-21T03:51:24;12.40;99.90
8914;DHT22;4492;48.736;9.092;2023-05-21T03:53:50;12.50;99.90
8914;DHT22;4492;48.736;9.092;2023-05-21T03:56:16;12.50;99.90
8914;DHT22;4492;48.736;9.092;2023-05-21T03:58:42;12.50;99.90
8914;DHT22;4492;48.736;9.092;2023-05-21T04:01:08;12.40;99.90
8914;DHT22;4492;48.736;9.092;2023-05-21T04:03:34;12.40;99.90
8914;DHT22;4492;48.736;9.092;2023-05-21T04:06:00;12.40;99.90
8914;DHT22;4492;48.736;9.092;2023-05-21T04:08:26;12.40;99.90
8914;DHT22;4492;48.736;9.092;2023-05-21T04:10:52;12.30;99.90
8914;DHT22;4492;48.736;9.092;2023-05-21T04:13:17;12.40;99.90
8914;DHT22;4492;48.736;9.092;2023-05-21T04:15:43;12.40;99.90
8914;DHT22;4492;48.736;9.092;2023-05-21T04:18:11;12.40;99.90
8914;DHT22;4492;48.736;9.092;2023-05-21T04:20:38;12.50;99.90
8914;DHT22;4492;48.736;9.092;2023-05-21T04:23:03;12.50;99.90
8914;DHT22;4492;48.736;9.092;2023-05-21T04:25:29;12.50;99.90
8914;DHT22;4492;48.736;9.092;2023-05-21T04:27:54;12.50;99.90
8914;DHT22;4492;48.736;9.092;2023-05-21T04:30:20;12.50;99.90
8914;DHT22;4492;48.736;9.092;2023-05-21T04:32:46;12.50;99.90
8914;DHT22;4492;48.736;9.092;2023-05-21T04:35:12;12.50;99.90
8914;DHT22;4492;48.736;9.092;2023-05-21T04:37:39;12.50;99.90
8914;DHT22;4492;48.736;9.092;2023-05-21T04:40:09;12.50;99.90
8914;DHT22;4492;48.736;9.092;2023-05-21T04:42:35;12.50;99.90
8914;DHT22;4492;48.736;9.092;2023-05-21T04:45:01;12.50;99.90
8914;DHT22;4492;48.736;9.092;2023-05-21T04:47:27;12.60;99.90
8914;DHT22;4492;48.736;9.092;2023-05-21T04:50:00;12.60;99.90
8914;DHT22;4492;48.736;9.092;2023-05-21T04:52:25;12.60;99.90
8914;DHT22;4492;48.736;9.092;2023-05-21T04:54:51;12.60;99.90
8914;DHT22;4492;48.736;9.092;2023-05-21T04:57:18;12.60;99.90
8914;DHT22;4492;48.736;9.092;2023-05-21T04:59:44;12.60;99.90
8914;DHT22;4492;48.736;9.092;2023-05-21T05:02:09;12.70;99.90
8914;DHT22;4492;48.736;9.092;2023-05-21T05:04:35;12.70;99.90
8914;DHT22;4492;48.736;9.092;2023-05-21T05:07:00;12.70;99.90
8914;DHT22;4492;48.736;9.092;2023-05-21T05:09:26;12.80;99.90
8914;DHT22;4492;48.736;9.092;2023-05-21T05:11:52;12.80;99.90
8914;DHT22;4492;48.736;9.092;2023-05-21T05:14:17;12.80;99.90
8914;DHT22;4492;48.736;9.092;2023-05-21T05:16:43;12.90;99.90
8914;DHT22;4492;48.736;9.092;2023-05-21T05:19:08;12.90;99.90
8914;DHT22;4492;48.736;9.092;2023-05-21T05:21:34;13.00;99.90
8914;DHT22;4492;48.736;9.092;2023-05-21T05:24:00;13.00;99.90
8914;DHT22;4492;48.736;9.092;2023-05-21T05:26:25;13.10;99.90
8914;DHT22;4492;48.736;9.092;2023-05-21T05:28:51;13.20;99.90
8914;DHT22;4492;48.736;9.092;2023-05-21T05:31:16;13.20;99.90
8914;DHT22;4492;48.736;9.092;2023-05-21T05:33:42;13.30;99.90
8914;DHT22;4492;48.736;9.092;2023-05-21T05:36:07;13.40;99.90
8914;DHT22;4492;48.736;9.092;2023-05-21T05:38:33;13.50;99.90
8914;DHT22;4492;48.736;9.092;2023-05-21T05:40:59;13.60;99.90
8914;DHT22;4492;48.736;9.092;2023-05-21T05:43:25;13.60;99.90
8914;DHT22;4492;48.736;9.092;2023-05-21T05:45:51;13.70;99.90
8914;DHT22;4492;48.736;9.092;2023-05-21T05:48:17;13.80;99.90
8914;DHT22;4492;48.736;9.092;2023-05-21T05:50:43;13.90;99.90
8914;DHT22;4492;48.736;9.092;2023-05-21T05:53:09;14.00;99.90
8914;DHT22;4492;48.736;9.092;2023-05-21T05:55:38;14.00;99.90
8914;DHT22;4492;48.736;9.092;2023-05-21T05:58:03;14.20;99.90
8914;DHT22;4492;48.736;9.092;2023-05-21T06:00:29;14.20;99.90
8914;DHT22;4492;48.736;9.092;2023-05-21T06:02:54;14.40;99.90
8914;DHT22;4492;48.736;9.092;2023-05-21T06:05:20;14.50;99.90
8914;DHT22;4492;48.736;9.092;2023-05-21T06:07:45;14.50;99.90
8914;DHT22;4492;48.736;9.092;2023-05-21T06:10:11;14.70;99.90
8914;DHT22;4492;48.736;9.092;2023-05-21T06:12:36;14.80;99.90
8914;DHT22;4492;48.736;9.092;2023-05-21T06:15:02;14.90;99.90
8914;DHT22;4492;48.736;9.092;2023-05-21T06:17:28;15.00;99.90
8914;DHT22;4492;48.736;9.092;2023-05-21T06:19:54;15.20;99.90
8914;DHT22;4492;48.736;9.092;2023-05-21T06:22:19;15.30;99.90
8914;DHT22;4492;48.736;9.092;2023-05-21T06:24:45;15.40;99.90
8914;DHT22;4492;48.736;9.092;2023-05-21T06:27:11;15.50;99.90
8914;DHT22;4492;48.736;9.092;2023-05-21T06:29:36;15.60;99.90
8914;DHT22;4492;48.736;9.092;2023-05-21T06:32:02;15.60;99.90
8914;DHT22;4492;48.736;9.092;2023-05-21T06:34:27;15.60;99.90
8914;DHT22;4492;48.736;9.092;2023-05-21T06:36:53;15.60;99.90
8914;DHT22;4492;48.736;9.092;2023-05-21T06:39:19;15.60;99.90
8914;DHT22;4492;48.736;9.092;2023-05-21T06:41:44;15.70;99.90
8914;DHT22;4492;48.736;9.092;2023-05-21T06:44:10;15.70;99.90
8914;DHT22;4492;48.736;9.092;2023-05-21T06:46:36;15.70;99.90
8914;DHT22;4492;48.736;9.092;2023-05-21T06:49:01;15.80;99.90
8914;DHT22;4492;48.736;9.092;2023-05-21T06:51:27;15.80;99.90
8914;DHT22;4492;48.736;9.092;2023-05-21T06:53:52;15.90;99.90
8914;DHT22;4492;48.736;9.092;2023-05-21T06:56:18;16.10;99.90
8914;DHT22;4492;48.736;9.092;2023-05-21T06:58:43;16.10;99.90
8914;DHT22;4492;48.736;9.092;2023-05-21T07:01:09;16.20;99.90
8914;DHT22;4492;48.736;9.092;2023-05-21T07:03:35;16.30;99.90
8914;DHT22;4492;48.736;9.092;2023-05-21T07:06:01;16.50;99.90
8914;DHT22;4492;48.736;9.092;2023-05-21T07:08:27;16.60;99.90
8914;DHT22;4492;48.736;9.092;2023-05-21T07:10:52;16.70;99.90
8914;DHT22;4492;48.736;9.092;2023-05-21T07:13:18;16.80;99.90
8914;DHT22;4492;48.736;9.092;2023-05-21T07:15:43;16.90;99.90
8914;DHT22;4492;48.736;9.092;2023-05-21T07:18:09;17.00;99.90
8914;DHT22;4492;48.736;9.092;2023-05-21T07:20:34;17.10;99.90
8914;DHT22;4492;48.736;9.092;2023-05-21T07:23:00;17.30;99.90
8914;DHT22;4492;48.736;9.092;2023-05-21T07:25:25;17.30;99.90
8914;DHT22;4492;48.736;9.092;2023-05-21T07:27:51;17.50;99.90
8914;DHT22;4492;48.736;9.092;2023-05-21T07:30:16;17.60;99.90
8914;DHT22;4492;48.736;9.092;2023-05-21T07:32:42;17.70;99.90
8914;DHT22;4492;48.736;9.092;2023-05-21T07:35:07;17.90;99.90
8914;DHT22;4492;48.736;9.092;2023-05-21T07:37:33;18.00;99.90
8914;DHT22;4492;48.736;9.092;2023-05-21T07:39:59;18.10;99.90
8914;DHT22;4492;48.736;9.092;2023-05-21T07:42:25;18.30;99.90
8914;DHT22;4492;48.736;9.092;2023-05-21T07:44:50;18.40;99.90
8914;DHT22;4492;48.736;9.092;2023-05-21T07:47:16;18.30;99.90
8914;DHT22;4492;48.736;9.092;2023-05-21T07:49:42;18.40;99.90
8914;DHT22;4492;48.736;9.092;2023-05-21T07:52:08;18.40;99.90
8914;DHT22;4492;48.736;9.092;2023-05-21T07:54:33;18.40;99.90
8914;DHT22;4492;48.736;9.092;2023-05-21T07:56:59;18.50;99.90
8914;DHT22;4492;48.736;9.092;2023-05-21T07:59:27;18.50;99.90
8914;DHT22;4492;48.736;9.092;2023-05-21T08:01:52;18.50;99.90
8914;DHT22;4492;48.736;9.092;2023-05-21T08:04:18;18.50;99.90
8914;DHT22;4492;48.736;9.092;2023-05-21T08:06:43;18.60;99.90
8914;DHT22;4492;48.736;9.092;2023-05-21T08:09:09;18.80;99.90
8914;DHT22;4492;48.736;9.092;2023-05-21T08:11:34;19.10;99.90
8914;DHT22;4492;48.736;9.092;2023-05-21T08:14:00;19.40;99.90
8914;DHT22;4492;48.736;9.092;2023-05-21T08:16:25;19.60;99.90
8914;DHT22;4492;48.736;9.092;2023-05-21T08:18:51;19.80;99.90
8914;DHT22;4492;48.736;9.092;2023-05-21T08:21:16;20.10;99.90
8914;DHT22;4492;48.736;9.092;2023-05-21T08:23:43;20.20;99.90
8914;DHT22;4492;48.736;9.092;2023-05-21T08:26:09;20.20;99.90
8914;DHT22;4492;48.736;9.092;2023-05-21T08:28:37;20.30;99.90
8914;DHT22;4492;48.736;9.092;2023-05-21T08:31:03;20.40;99.90
8914;DHT22;4492;48.736;9.092;2023-05-21T08:33:28;20.50;99.90
8914;DHT22;4492;48.736;9.092;2023-05-21T08:35:54;20.60;99.90
8914;DHT22;4492;48.736;9.092;2023-05-21T08:38:19;20.70;99.90
8914;DHT22;4492;48.736;9.092;2023-05-21T08:40:45;20.70;99.90
8914;DHT22;4492;48.736;9.092;2023-05-21T08:43:15;20.80;99.20
8914;DHT22;4492;48.736;9.092;2023-05-21T08:45:44;20.80;99.20
8914;DHT22;4492;48.736;9.092;2023-05-21T08:48:12;20.90;99.70
8914;DHT22;4492;48.736;9.092;2023-05-21T08:50:40;20.80;99.60
8914;DHT22;4492;48.736;9.092;2023-05-21T08:53:07;21.00;99.80
8914;DHT22;4492;48.736;9.092;2023-05-21T08:55:33;21.20;99.90
8914;DHT22;4492;48.736;9.092;2023-05-21T08:57:59;21.40;99.50
8914;DHT22;4492;48.736;9.092;2023-05-21T09:00:25;21.70;99.60
8914;DHT22;4492;48.736;9.092;2023-05-21T09:02:50;21.90;97.70
8914;DHT22;4492;48.736;9.092;2023-05-21T09:05:18;22.00;97.50
8914;DHT22;4492;48.736;9.092;2023-05-21T09:08:04;22.00;98.00
8914;DHT22;4492;48.736;9.092;2023-05-21T09:10:37;22.30;98.00
8914;DHT22;4492;48.736;9.092;2023-05-21T09:13:03;22.40;97.40
8914;DHT22;4492;48.736;9.092;2023-05-21T09:15:29;22.40;97.20
8914;DHT22;4492;48.736;9.092;2023-05-21T09:17:55;22.30;97.30
8914;DHT22;4492;48.736;9.092;2023-05-21T09:20:26;22.30;96.30
8914;DHT22;4492;48.736;9.092;2023-05-21T09:22:52;22.30;96.60
8914;DHT22;4492;48.736;9.092;2023-05-21T09:25:23;22.40;96.80
8914;DHT22;4492;48.736;9.092;2023-05-21T09:27:49;22.30;96.60
8914;DHT22;4492;48.736;9.092;2023-05-21T09:30:16;22.20;96.40
8914;DHT22;4492;48.736;9.092;2023-05-21T09:32:43;22.10;97.30
8914;DHT22;4492;48.736;9.092;2023-05-21T09:35:11;21.80;97.40
8914;DHT22;4492;48.736;9.092;2023-05-21T09:37:41;21.50;98.10
8914;DHT22;4492;48.736;9.092;2023-05-21T09:40:10;21.40;98.20
8914;DHT22;4492;48.736;9.092;2023-05-21T09:42:43;21.60;99.00
8914;DHT22;4492;48.736;9.092;2023-05-21T09:45:10;21.90;98.50
8914;DHT22;4492;48.736;9.092;2023-05-21T09:47:43;22.00;97.60
8914;DHT22;4492;48.736;9.092;2023-05-21T09:50:12;22.00;97.70
8914;DHT22;4492;48.736;9.092;2023-05-21T09:52:39;22.10;97.60
8914;DHT22;4492;48.736;9.092;2023-05-21T09:55:13;22.20;97.10
8914;DHT22;4492;48.736;9.092;2023-05-21T09:57:43;22.20;97.60
8914;DHT22;4492;48.736;9.092;2023-05-21T10:02:46;22.30;96.60
8914;DHT22;4492;48.736;9.092;2023-05-21T10:05:16;22.30;96.60
8914;DHT22;4492;48.736;9.092;2023-05-21T10:07:44;22.50;96.20
8914;DHT22;4492;48.736;9.092;2023-05-21T10:10:13;22.70;96.60
8914;DHT22;4492;48.736;9.092;2023-05-21T10:12:42;22.80;95.40
8914;DHT22;4492;48.736;9.092;2023-05-21T10:15:13;23.00;95.00
8914;DHT22;4492;48.736;9.092;2023-05-21T10:17:39;23.10;95.00
8914;DHT22;4492;48.736;9.092;2023-05-21T10:20:07;23.30;95.50
8914;DHT22;4492;48.736;9.092;2023-05-21T10:22:35;23.60;95.50
8914;DHT22;4492;48.736;9.092;2023-05-21T10:25:02;23.80;93.80
8914;DHT22;4492;48.736;9.092;2023-05-21T10:27:29;23.70;93.80
8914;DHT22;4492;48.736;9.092;2023-05-21T10:29:56;23.70;93.80
8914;DHT22;4492;48.736;9.092;2023-05-21T10:32:22;23.60;93.90
8914;DHT22;4492;48.736;9.092;2023-05-21T10:34:48;23.70;93.10
8914;DHT22;4492;48.736;9.092;2023-05-21T10:37:16;23.80;92.80
8914;DHT22;4492;48.736;9.092;2023-05-21T10:39:42;23.90;92.90
8914;DHT22;4492;48.736;9.092;2023-05-21T10:43:19;24.00;92.10
8914;DHT22;4492;48.736;9.092;2023-05-21T10:50:50;23.40;93.00
8914;DHT22;4492;48.736;9.092;2023-05-21T10:53:40;23.50;93.50
8914;DHT22;4492;48.736;9.092;2023-05-21T11:01:30;23.50;92.80
8914;DHT22;4492;48.736;9.092;2023-05-21T11:03:58;23.50;93.60
8914;DHT22;4492;48.736;9.092;2023-05-21T11:06:25;23.50;92.50
8914;DHT22;4492;48.736;9.092;2023-05-21T11:08:51;23.50;92.30
8914;DHT22;4492;48.736;9.092;2023-05-21T11:11:43;23.40;91.80
8914;DHT22;4492;48.736;9.092;2023-05-21T11:14:35;23.30;91.10
8914;DHT22;4492;48.736;9.092;2023-05-21T11:19:43;23.70;90.50
8914;DHT22;4492;48.736;9.092;2023-05-21T11:22:20;23.90;91.00
8914;DHT22;4492;48.736;9.092;2023-05-21T11:24:46;24.00;91.10
8914;DHT22;4492;48.736;9.092;2023-05-21T11:27:12;24.10;90.40
8914;DHT22;4492;48.736;9.092;2023-05-21T11:29:39;24.10;90.30
8914;DHT22;4492;48.736;9.092;2023-05-21T11:32:06;24.10;91.10
8914;DHT22;4492;48.736;9.092;2023-05-21T11:34:43;24.00;90.70
8914;DHT22;4492;48.736;9.092;2023-05-21T11:39:45;23.70;91.30
8914;DHT22;4492;48.736;9.092;2023-05-21T11:42:11;23.80;91.40
8914;DHT22;4492;48.736;9.092;2023-05-21T11:44:44;24.00;89.40
8914;DHT22;4492;48.736;9.092;2023-05-21T11:47:14;24.30;90.00
8914;DHT22;4492;48.736;9.092;2023-05-21T11:49:40;24.20;90.30
8914;DHT22;4492;48.736;9.092;2023-05-21T11:52:07;24.40;90.40
8914;DHT22;4492;48.736;9.092;2023-05-21T11:54:42;24.40;90.70
8914;DHT22;4492;48.736;9.092;2023-05-21T11:57:11;24.50;90.60
8914;DHT22;4492;48.736;9.092;2023-05-21T11:59:37;24.60;90.40
8914;DHT22;4492;48.736;9.092;2023-05-21T12:02:03;24.80;90.10
8914;DHT22;4492;48.736;9.092;2023-05-21T12:04:30;25.10;89.90
8914;DHT22;4492;48.736;9.092;2023-05-21T12:06:55;25.00;89.80
8914;DHT22;4492;48.736;9.092;2023-05-21T12:09:23;25.10;89.50
8914;DHT22;4492;48.736;9.092;2023-05-21T12:11:49;24.80;89.70
8914;DHT22;4492;48.736;9.092;2023-05-21T12:14:16;25.00;87.90
8914;DHT22;4492;48.736;9.092;2023-05-21T12:16:42;25.10;88.20
8914;DHT22;4492;48.736;9.092;2023-05-21T12:19:07;25.30;85.90
8914;DHT22;4492;48.736;9.092;2023-05-21T12:21:34;25.40;87.10
8914;DHT22;4492;48.736;9.092;2023-05-21T12:24:01;24.70;85.60
8914;DHT22;4492;48.736;9.092;2023-05-21T12:26:27;24.80;85.30
8914;DHT22;4492;48.736;9.092;2023-05-21T12:28:54;25.00;86.70
8914;DHT22;4492;48.736;9.092;2023-05-21T12:31:21;25.10;88.60
8914;DHT22;4492;48.736;9.092;2023-05-21T12:33:52;25.30;86.80
8914;DHT22;4492;48.736;9.092;2023-05-21T12:36:29;25.70;86.00
8914;DHT22;4492;48.736;9.092;2023-05-21T12:38:56;25.50;86.30
8914;DHT22;4492;48.736;9.092;2023-05-21T12:41:22;25.40;85.20
8914;DHT22;4492;48.736;9.092;2023-05-21T12:43:49;25.60;85.60
8914;DHT22;4492;48.736;9.092;2023-05-21T12:46:16;25.40;83.80
8914;DHT22;4492;48.736;9.092;2023-05-21T12:48:52;25.50;83.70
8914;DHT22;4492;48.736;9.092;2023-05-21T12:51:19;25.70;84.20
8914;DHT22;4492;48.736;9.092;2023-05-21T12:53:45;25.60;84.40
8914;DHT22;4492;48.736;9.092;2023-05-21T12:56:12;25.10;83.90
8914;DHT22;4492;48.736;9.092;2023-05-21T12:58:39;25.10;83.90
8914;DHT22;4492;48.736;9.092;2023-05-21T13:01:09;25.30;82.80
8914;DHT22;4492;48.736;9.092;2023-05-21T13:03:40;25.40;83.90
8914;DHT22;4492;48.736;9.092;2023-05-21T13:06:06;25.70;82.10
8914;DHT22;4492;48.736;9.092;2023-05-21T13:08:33;25.90;81.20
8914;DHT22;4492;48.736;9.092;2023-05-21T13:11:02;25.90;80.40
8914;DHT22;4492;48.736;9.092;2023-05-21T13:13:28;25.70;80.90
8914;DHT22;4492;48.736;9.092;2023-05-21T13:15:54;25.50;82.90
8914;DHT22;4492;48.736;9.092;2023-05-21T13:18:20;25.50;83.00
8914;DHT22;4492;48.736;9.092;2023-05-21T13:20:46;25.70;81.90
8914;DHT22;4492;48.736;9.092;2023-05-21T13:23:13;25.90;81.20
8914;DHT22;4492;48.736;9.092;2023-05-21T13:25:39;26.10;80.20
8914;DHT22;4492;48.736;9.092;2023-05-21T13:28:05;26.00;79.60
8914;DHT22;4492;48.736;9.092;2023-05-21T13:30:32;26.10;78.40
8914;DHT22;4492;48.736;9.092;2023-05-21T13:32:58;26.20;78.70
8914;DHT22;4492;48.736;9.092;2023-05-21T13:35:24;26.10;77.30
8914;DHT22;4492;48.736;9.092;2023-05-21T13:37:49;25.90;76.60
8914;DHT22;4492;48.736;9.092;2023-05-21T13:40:15;25.90;77.80
8914;DHT22;4492;48.736;9.092;2023-05-21T13:42:42;26.00;78.50
8914;DHT22;4492;48.736;9.092;2023-05-21T13:45:10;26.10;76.80
8914;DHT22;4492;48.736;9.092;2023-05-21T13:47:36;26.10;77.10
8914;DHT22;4492;48.736;9.092;2023-05-21T13:50:02;26.10;77.50
8914;DHT22;4492;48.736;9.092;2023-05-21T13:52:28;26.10;76.60
8914;DHT22;4492;48.736;9.092;2023-05-21T13:54:54;26.10;75.60
8914;DHT22;4492;48.736;9.092;2023-05-21T13:57:19;26.00;74.80
8914;DHT22;4492;48.736;9.092;2023-05-21T13:59:45;25.80;75.80
8914;DHT22;4492;48.736;9.092;2023-05-21T14:02:11;25.70;75.80
8914;DHT22;4492;48.736;9.092;2023-05-21T14:04:37;25.80;76.70
8914;DHT22;4492;48.736;9.092;2023-05-21T14:07:03;26.00;76.50
8914;DHT22;4492;48.736;9.092;2023-05-21T14:09:29;26.10;76.60
8914;DHT22;4492;48.736;9.092;2023-05-21T14:11:55;26.20;74.80
8914;DHT22;4492;48.736;9.092;2023-05-21T14:14:22;26.40;73.80
8914;DHT22;4492;48.736;9.092;2023-05-21T14:16:48;26.50;73.00
8914;DHT22;4492;48.736;9.092;2023-05-21T14:19:15;26.70;71.80
8914;DHT22;4492;48.736;9.092;2023-05-21T14:21:41;26.50;72.00
8914;DHT22;4492;48.736;9.092;2023-05-21T14:24:06;26.50;69.50
8914;DHT22;4492;48.736;9.092;2023-05-21T14:26:32;26.40;72.20
8914;DHT22;4492;48.736;9.092;2023-05-21T14:28:58;26.40;70.80
8914;DHT22;4492;48.736;9.092;2023-05-21T14:31:23;26.60;70.10
8914;DHT22;4492;48.736;9.092;2023-05-21T14:33:50;26.60;70.90
8914;DHT22;4492;48.736;9.092;2023-05-21T14:36:16;26.90;71.60
8914;DHT22;4492;48.736;9.092;2023-05-21T14:38:41;27.10;71.30
8914;DHT22;4492;48.736;9.092;2023-05-21T14:41:07;27.30;69.60
8914;DHT22;4492;48.736;9.092;2023-05-21T14:43:34;27.40;67.80
8914;DHT22;4492;48.736;9.092;2023-05-21T14:45:59;27.30;67.70
8914;DHT22;4492;48.736;9.092;2023-05-21T14:48:25;27.40;68.40
8914;DHT22;4492;48.736;9.092;2023-05-21T14:50:50;27.60;68.10
8914;DHT22;4492;48.736;9.092;2023-05-21T14:53:17;27.80;65.50
8914;DHT22;4492;48.736;9.092;2023-05-21T14:55:43;27.90;64.10
8914;DHT22;4492;48.736;9.092;2023-05-21T14:58:09;27.80;65.90
8914;DHT22;4492;48.736;9.092;2023-05-21T15:00:35;27.70;65.50
8914;DHT22;4492;48.736;9.092;2023-05-21T15:03:01;27.60;68.50
8914;DHT22;4492;48.736;9.092;2023-05-21T15:05:27;27.70;68.10
8914;DHT22;4492;48.736;9.092;2023-05-21T15:07:56;27.90;65.80
8914;DHT22;4492;48.736;9.092;2023-05-21T15:10:23;28.00;66.40
8914;DHT22;4492;48.736;9.092;2023-05-21T15:12:49;27.90;66.20
8914;DHT22;4492;48.736;9.092;2023-05-21T15:15:14;27.70;65.60
8914;DHT22;4492;48.736;9.092;2023-05-21T15:17:41;27.60;65.40
8914;DHT22;4492;48.736;9.092;2023-05-21T15:20:08;27.20;64.10
8914;DHT22;4492;48.736;9.092;2023-05-21T15:22:34;27.40;64.10
8914;DHT22;4492;48.736;9.092;2023-05-21T15:25:01;27.50;64.40
8914;DHT22;4492;48.736;9.092;2023-05-21T15:27:27;27.70;65.00
8914;DHT22;4492;48.736;9.092;2023-05-21T15:29:53;28.00;65.50
8914;DHT22;4492;48.736;9.092;2023-05-21T15:32:18;28.20;64.20
8914;DHT22;4492;48.736;9.092;2023-05-21T15:34:48;28.50;61.20
8914;DHT22;4492;48.736;9.092;2023-05-21T15:37:14;28.50;61.50
8914;DHT22;4492;48.736;9.092;2023-05-21T15:39:40;28.50;60.80
8914;DHT22;4492;48.736;9.092;2023-05-21T15:42:06;28.60;62.00
8914;DHT22;4492;48.736;9.092;2023-05-21T15:44:32;28.50;61.60
8914;DHT22;4492;48.736;9.092;2023-05-21T15:46:57;28.30;58.80
8914;DHT22;4492;48.736;9.092;2023-05-21T15:49:23;27.80;58.50
8914;DHT22;4492;48.736;9.092;2023-05-21T15:51:48;27.60;60.70
8914;DHT22;4492;48.736;9.092;2023-05-21T15:54:14;27.60;61.20
8914;DHT22;4492;48.736;9.092;2023-05-21T15:56:41;27.70;58.90
8914;DHT22;4492;48.736;9.092;2023-05-21T15:59:07;27.80;56.90
8914;DHT22;4492;48.736;9.092;2023-05-21T16:01:33;27.80;57.00
8914;DHT22;4492;48.736;9.092;2023-05-21T16:04:00;27.90;56.20
8914;DHT22;4492;48.736;9.092;2023-05-21T16:06:26;28.20;56.30
8914;DHT22;4492;48.736;9.092;2023-05-21T16:08:52;28.70;54.80
8914;DHT22;4492;48.736;9.092;2023-05-21T16:11:17;29.00;54.00
8914;DHT22;4492;48.736;9.092;2023-05-21T16:13:43;29.10;53.40
8914;DHT22;4492;48.736;9.092;2023-05-21T16:16:08;29.60;52.80
8914;DHT22;4492;48.736;9.092;2023-05-21T16:18:34;29.80;51.70
8914;DHT22;4492;48.736;9.092;2023-05-21T16:20:59;29.50;52.00